Fort Knox, KY

02:38 AM EDT am 24. August 2016 (GMT -0400)
Godman Army Air Field | | Change Station

Höhe 755 ft 37.91 °N, 85.97 °W | Updated 40 minutes ago

Clear
Heiter
68 °F
gefühlte 68 °F
N
1
Wind Wechselnd Wind aus Südost

Heute
Max. -- | schwach -- °F
--% Regenrisiko
Gestern
Max. -- | schwach -- °F
Precip. -- inch
Druck 30.17 inch
Sichtweite 10.0 Meilen
Wolken Heiter
Taupunkt 66 °F
Feuchtigkeit 95%
Regen 0.00 inch
Schneehöhe Nicht verfügbar..
7:07 AM 8:24 PM
Drittes Viertel, 60% visible
METAR KFTK 240558Z AUTO 13001KT 10SM CLR 20/19 A3018 RMK AO2 SLP217 T02000191 10247 20200 58002
Druck 30.17 inch
Sichtweite 10.0 Meilen
Wolken Heiter
Taupunkt 66 °F
Feuchtigkeit 95%
Regen 0.00 inch
Schneehöhe Nicht verfügbar..
7:07 AM 8:24 PM
Drittes Viertel, 60% visible
METAR KFTK 240558Z AUTO 13001KT 10SM CLR 20/19 A3018 RMK AO2 SLP217 T02000191 10247 20200 58002

10-Day Weather Forecast

Almanac

Astronomie

Aug. 24, 2016 Aufgang Untergang
Genaue Zeit
Bürgerliche Dämmerung
Nautische Dämmerung
Astronomische Dämmerung
Mond
Länge des sichtbaren Lichts
Tageslänge
Tomorrow will be .
, % of the Moon is Illuminated

Heutige Rekorde

State Highs State Lows

Community

WunderPhotos

Upload Photos

1,934,555 Fotos hochgeladen!

WunderBlog® & News

Nearby

Luftqualität

  Luftqualität LQ Index Schadstoff
Not available.

Schneehöhe

Station Depth Höhe

Erdbebenaktivität

Stadt Distance Mag. Time & Date
Minimum magnitude displayed is 2.5.

küstennahe Wassertemperaturen

Ort Temperatur

Stations

Wetterstationen in der Umgebung

Stationsstandort Temp. Windchill Taupunkt Feuchtigkeit Wind Precip. Höhe Aktualisiert Art
                   

Watches & Warnings

There are currently no watches in effect.